Aktualne dane pomiarowe

Uwaga, wersja testowa! Automatyczne pobieranie danych za pomocą narzędzi lub skryptów to umożliwiających jest zabronione.

Dane meteo z obszaru Polski uzyskane na podstawie depesz SYNOP pobieranych co godzinę z NWS. Najedź myszką na symbol przedstawiony w tabeli, aby uzyskać informacje co do jego znaczenia. Prosimy pamiętać, że to testowa wersja strony, która jeszcze nie jest ukończona. Stworzono również jest krótki FAQ dotyczący korzystania z tej podstrony Anomalie temperatury w chwili obecnej odniesione są do okresu referencyjnego 1951-2016. Okres ten będzie później zmieniony na 1981-2010. Kliknij ikonę aby pobrać plik CSV. Kliknij ikonę aby wygenerować mapę synoptyczną dla danego terminu.

Wybierz Datę:    

        

Bielsko-Biała (12600)

Dane terminowe dla wybranej stacji. Kliknij datę, aby otrzymać dane z tego terminu dla wszystkich stacji.

TemperaturaZachmurzenieWiatrCiśnienieOpadyPogoda
 Data t td wb tx tn tg rh  Nt Nl Cl Cm Ch ws wd g1 g2 wx mslp ppp ch 24h 12h t ww ww w1 w2  
2019-08-08 23:00:00 16.2 12.2 13.6--- 7730.0wx-wx2wx--21014.8 968.0 0.6----22----
2019-08-08 22:00:00 17.3 11.8 13.8--- 7040.0wx-wx1wx--11014.5 967.9 0.5----22----
2019-08-08 21:00:00 18.3 11.6 14.1--- 6540.0wx-wx1wx--11013.9 967.5 0.4----22----
2019-08-08 20:00:00 18.8 11.4 14.2--- 6230.0wx-wx3wx---1013.7 967.4 0.7---------
2019-08-08 19:00:00 18.6 11.9 14.4--- 6540.0wx-wxwx3wx--31013.8 967.4 0.6---------
2019-08-08 18:00:00 20.1 13.8 16.0 24.2 17.6- 6740.0wxwxwxwxwx3wx--31013.2 967.1 0.1- 0.012------
2019-08-08 17:00:00 22.7 14.3 17.3--- 5930.0wxwxwxwx3wx--31012.4 966.7 -0.3---------
2019-08-08 16:00:00 23.7 13.3 17.2--- 5230.0wxwxwxwx2wx---1012.3 966.8 -0.6---------
2019-08-08 15:00:00 23.7 12.3 16.7--- 4940.0wxwxwxwxwx3wx--31012.5 967.0 -0.2---------
2019-08-08 14:00:00 23.8 11.5 16.4--- 4630.0wxwxwxwxwx2wx--21012.5 967.0 -0.3---------
2019-08-08 13:00:00 23.6 12.3 16.7--- 4930.0wxwxwxwx2wx--21013.0 967.4 0.4---------
2019-08-08 12:00:00 23.2 12.5 16.6--- 5130.0wxwxwxwx2wx--21012.8 967.2 0.4- 0.06------
2019-08-08 11:00:00 22.1 12.6 16.2--- 5530.0wxwxwxwx3wx--31013.1 967.3 0.7---------
2019-08-08 10:00:00 21.4 14.1 16.7--- 6320.0wxwxwxwx3wx--31012.9 967.0 0.8---------
2019-08-08 09:00:00 20.5 14.6 16.6--- 6920.0wxwxwx4wx--41012.8 966.8 1.3---------
2019-08-08 08:00:00 19.5 14.9 16.4--- 7520.0wxwxwx4wx--41012.8 966.6 1.6---------
2019-08-08 07:00:00 18.3 15.9 16.6--- 8620.0wxwxwx5wx--51012.5 966.2 1.8---------
2019-08-08 06:00:00 17.6 15.6 16.2 23.2 16.4 16 8830.0wxwxwx3wx--31011.9 965.5 1.6 14.3 14.012wx-w1- 8.4
2019-08-08 05:00:00 17.4 15.7 16.2--- 9030.0wxwxwxwx5wx---1011.4 965.0 1.8---------
2019-08-08 04:00:00 16.4 15.6 15.8--- 9530.0wxwxwxwxwx3wx---1011.0 964.4 1.3---wx-w1--
2019-08-08 03:00:00 16.8 15.8 16.1--- 944.0wxwxwx6wx--61010.4 963.9 1.7---wx-w1--
2019-08-08 02:00:00 17.4 16.6 16.8--- 9515.0wxwxwx5wx--51009.5 963.2 0.7---------
2019-08-08 01:00:00 17.5 16.7 16.9--- 9540.0wxwxwx3wx--31009.4 963.1 0.6---wx---
2019-08-08 00:00:00 17.4 16.6 16.8--- 956.0wxwxwx1wx--11008.5 962.2 0.7- 11.06wx---
2019-08-07 23:00:00 17.4 16.4 16.7--- 942.0wxwxwx5wx--51008.8 962.5 1.0---wx-w1w2--
2019-08-07 22:00:00 20.2 15.8 17.2--- 7620.0wxwxwx6wx--61008.4 962.5 1.3---wx---
2019-08-07 21:00:00 20.2 16.2 17.4--- 7830.0wxwxwxwxwx1wx--11007.3 961.5 0.1----22----
2019-08-07 20:00:00 22.0 16.0 18.0--- 6930.0wxwxwxwxwx3wx---1007.0 961.5 0.1---------
2019-08-07 19:00:00 22.1 15.7 17.9--- 6730.0wxwxwxwxwx1wx---1006.7 961.2 -0.3---wx---
2019-08-07 18:00:00 22.6 17.1 18.9 28.2 22.6- 7140.0wxwxwxwxwx2wx-1021006.8 961.4 -0.3--12------
2019-08-07 17:00:00 25.1 16.8 19.6--- 6050.0wxwxwxwxwx2wx--21006.4 961.4 -0.9---------
2019-08-07 16:00:00 27.0 15.1 19.4--- 4850.0wxwxwxwxwx2wx--21006.3 961.5 -1.0---------
2019-08-07 15:00:00 27.5 13.8 19.0--- 4350.0wxwxwxwxwx5wx-1051006.4 961.7 -1.2---------
2019-08-07 14:00:00 28.0 16.3 20.4--- 4950.0wxwxwxwx5wx---1006.9 962.3 -0.7---------
2019-08-07 13:00:00 27.9 17.1 20.8--- 5240.0wxwxwxwxwx5wx--51007.2 962.5 -0.9---------
2019-08-07 12:00:00 26.8 16.7 20.2--- 5440.0wxwxwxwxwx5wx-1151007.7 962.9 -0.8--6wx-w1--
2019-08-07 11:00:00 26.1 16.9 20.0--- 5740.0wxwxwxwxwx4wx--41008.0 963.0 -0.7---wx---
2019-08-07 10:00:00 26.2 16.7 20.0--- 5640.0wxwxwxwxwx6wx-1161008.4 963.4 -0.3---------
2019-08-07 09:00:00 26.2 16.7 20.0--- 5650.0wxwxwxwxwx6wx---1008.7 963.7 -0.1---------
2019-08-07 08:00:00 24.4 16.6 19.2--- 6240.0wx-wxwx5wx--51009.0 963.7 -0.2---------
2019-08-07 07:00:00 23.6 16.1 18.6--- 6340.0wxwxwxwxwx4wx--41009.1 963.7 -0.5---------
2019-08-07 06:00:00 23.7 16.0 18.6 23.9 20.8 18 6240.0wxwxwxwxwx1wx--11009.2 963.8 -0.6- 0.012----- 11.0
2019-08-07 05:00:00 22.4 15.3 17.7--- 6430.0wx-wxwx3wx--31009.5 963.9 -0.6---------
2019-08-07 04:00:00 21.6 14.7 17.1--- 6540.0wx-wxwx5wx---1009.9 964.2 -0.4---------
2019-08-07 03:00:00 21.6 14.5 17.0--- 6440.0wx-wxwx5wx--51010.1 964.4 -0.3---------
2019-08-07 02:00:00 21.3 14.7 17.0--- 6640.0wx-wx4wx--41010.3 964.5 -0.2---------
2019-08-07 01:00:00 21.2 14.6 16.9--- 6640.0wx-wx4wx--41010.4 964.6 -0.3---------
2019-08-07 00:00:00 21.4 14.5 16.9--- 6540.0wx-wx5wx--51010.5 964.7 -0.3- 0.06------
1.6 ms

 

Print Friendly, PDF & Email